Time;durP1;ratioP1;P1;durP2;ratioP2;P2;SDS_P1;SDS_P2;PMS_P1;PMS_P2;Temp;Humidity;BMP_temperature;BMP_pressure;BME280_temperature;BME280_humidity;BME280_pressure;Samples;Min_cycle;Max_cycle;Signal;HPM_P1;HPM_P2
2023/12/26 00:01:09;;;;;;;11.73;2.80;;;;;;;4.91;100.00;94647.31;5075035;28;20029;-85
2023/12/26 00:03:35;;;;;;;7.00;2.25;;;;;;;5.13;100.00;94649.34;5076269;28;20024;-85
2023/12/26 00:06:01;;;;;;;6.00;2.33;;;;;;;5.00;100.00;94649.56;5075079;28;20036;-85
2023/12/26 00:08:27;;;;;;;7.10;2.35;;;;;;;4.68;100.00;94645.47;5074823;28;20025;-85
2023/12/26 00:10:52;;;;;;;8.82;2.30;;;;;;;4.75;100.00;94648.75;5075065;28;20030;-85
2023/12/26 00:13:17;;;;;;;10.85;2.80;;;;;;;4.69;100.00;94648.84;5074868;28;20453;-85
2023/12/26 00:15:43;;;;;;;7.63;2.80;;;;;;;4.61;100.00;94649.94;5078077;28;20032;-85
2023/12/26 00:18:08;;;;;;;5.75;2.30;;;;;;;4.62;100.00;94649.75;5061989;28;20345;-85
2023/12/26 00:20:36;;;;;;;8.05;2.50;;;;;;;4.91;100.00;94644.72;5078845;28;20126;-85
2023/12/26 00:23:02;;;;;;;8.95;2.25;;;;;;;4.70;100.00;94646.03;5078723;28;20016;-85
2023/12/26 00:25:27;;;;;;;6.85;2.75;;;;;;;4.54;100.00;94637.06;5078920;28;20031;-85
2023/12/26 00:27:53;;;;;;;8.48;2.30;;;;;;;4.65;100.00;94638.91;5078611;28;20021;-85
2023/12/26 00:30:18;;;;;;;5.80;2.40;;;;;;;4.77;100.00;94641.50;5062104;28;20392;-85
2023/12/26 00:32:43;;;;;;;4.03;1.90;;;;;;;4.73;100.00;94636.97;5078435;28;20058;-85
2023/12/26 00:35:09;;;;;;;11.05;2.80;;;;;;;4.70;100.00;94640.03;5078630;28;20047;-85
2023/12/26 00:37:35;;;;;;;6.72;2.38;;;;;;;4.45;100.00;94635.81;5078359;28;20507;-85
2023/12/26 00:40:00;;;;;;;8.43;2.88;;;;;;;4.44;100.00;94639.41;5079561;28;20024;-85
2023/12/26 00:42:26;;;;;;;10.57;2.95;;;;;;;4.39;100.00;94625.31;5079584;28;20433;-85
2023/12/26 00:44:51;;;;;;;10.43;2.45;;;;;;;4.66;100.00;94632.69;5078315;28;20048;-85
2023/12/26 00:47:17;;;;;;;5.88;2.20;;;;;;;4.85;100.00;94632.59;5080107;28;20035;-85
2023/12/26 00:49:42;;;;;;;11.43;2.97;;;;;;;4.60;100.00;94633.59;5078444;28;20025;-85
2023/12/26 00:52:08;;;;;;;11.73;3.17;;;;;;;4.63;100.00;94632.34;5078346;28;20020;-85
2023/12/26 00:54:35;;;;;;;14.30;2.85;;;;;;;4.45;100.00;94630.63;5078330;28;20089;-85
2023/12/26 00:57:02;;;;;;;13.82;3.33;;;;;;;4.33;100.00;94633.97;5062777;28;20074;-85
2023/12/26 00:59:28;;;;;;;10.65;3.10;;;;;;;4.38;100.00;94639.28;5096007;28;20105;-85
2023/12/26 01:01:53;;;;;;;10.48;3.28;;;;;;;4.38;100.00;94634.09;5078068;28;20350;-85
2023/12/26 01:04:21;;;;;;;15.55;3.60;;;;;;;4.50;100.00;94641.13;5078006;28;20020;-85
2023/12/26 01:06:46;;;;;;;10.32;3.58;;;;;;;4.71;100.00;94637.22;5079022;28;20449;-85
2023/12/26 01:09:12;;;;;;;10.40;2.95;;;;;;;4.64;100.00;94641.72;5071273;28;20112;-85
2023/12/26 01:11:37;;;;;;;18.60;3.60;;;;;;;4.59;100.00;94645.00;5097984;28;20110;-85
2023/12/26 01:14:03;;;;;;;14.98;4.18;;;;;;;4.46;100.00;94635.59;5081442;28;20032;-84
2023/12/26 01:16:28;;;;;;;11.77;3.85;;;;;;;4.28;100.00;94636.44;5081270;28;20024;-85
2023/12/26 01:18:55;;;;;;;15.85;4.00;;;;;;;4.29;100.00;94639.81;5097854;28;20028;-85
2023/12/26 01:21:20;;;;;;;18.30;4.43;;;;;;;4.32;100.00;94645.38;5097460;28;20024;-85
2023/12/26 01:23:45;;;;;;;18.90;5.20;;;;;;;4.46;100.00;94645.19;5099078;28;20460;-85
2023/12/26 01:26:11;;;;;;;18.52;4.63;;;;;;;4.45;100.00;94636.59;5097597;28;20030;-85
2023/12/26 01:28:36;;;;;;;17.60;4.32;;;;;;;4.60;100.00;94640.59;5097579;28;20024;-85
2023/12/26 01:31:02;;;;;;;20.90;6.32;;;;;;;4.55;100.00;94643.84;5081027;28;20016;-85
2023/12/26 01:33:27;;;;;;;17.95;4.90;;;;;;;4.49;100.00;94640.31;5097638;28;20024;-85
2023/12/26 01:35:52;;;;;;;17.02;4.88;;;;;;;4.39;100.00;94648.66;5074722;28;20448;-85
2023/12/26 01:38:18;;;;;;;22.20;5.85;;;;;;;4.61;100.00;94636.97;5060642;28;20024;-85
2023/12/26 01:40:43;;;;;;;28.45;6.03;;;;;;;4.61;100.00;94640.38;5061135;28;20082;-85
2023/12/26 01:43:09;;;;;;;21.08;6.60;;;;;;;4.72;100.00;94643.19;5086014;28;20318;-85
2023/12/26 01:45:34;;;;;;;19.40;5.65;;;;;;;4.73;100.00;94644.78;5097412;28;20027;-85
2023/12/26 01:48:00;;;;;;;26.88;6.22;;;;;;;4.70;100.00;94650.41;5080542;28;20035;-85
2023/12/26 01:50:26;;;;;;;20.40;5.70;;;;;;;4.57;100.00;94649.59;5089894;28;20605;-85
2023/12/26 01:52:52;;;;;;;26.30;6.95;;;;;;;4.51;100.00;94643.47;5070811;28;20044;-86
2023/12/26 01:55:19;;;;;;;22.45;6.00;;;;;;;4.63;100.00;94643.53;5088144;28;20028;-85
2023/12/26 01:57:44;;;;;;;21.15;7.35;;;;;;;4.65;100.00;94644.09;5085643;28;20055;-85
2023/12/26 02:00:10;;;;;;;27.92;6.75;;;;;;;4.52;100.00;94645.09;5067644;28;20147;-86
2023/12/26 02:02:36;;;;;;;24.90;6.95;;;;;;;4.47;100.00;94644.94;5084086;28;20074;-86
2023/12/26 02:05:02;;;;;;;24.92;6.45;;;;;;;4.64;100.00;94636.53;5071734;28;20028;-86
2023/12/26 02:07:28;;;;;;;27.38;6.38;;;;;;;4.35;100.00;94642.31;5086757;28;20054;-85
2023/12/26 02:09:54;;;;;;;29.45;7.05;;;;;;;4.20;100.00;94637.53;5077818;28;20027;-86
2023/12/26 02:12:19;;;;;;;34.45;6.57;;;;;;;4.11;100.00;94638.88;5093419;28;20035;-86
2023/12/26 02:14:45;;;;;;;24.50;6.78;;;;;;;4.14;100.00;94638.41;5077804;28;20315;-86
2023/12/26 02:17:18;;;;;;;26.05;5.75;;;;;;;4.34;100.00;94635.56;5088089;28;20025;-86
2023/12/26 02:19:46;;;;;;;23.52;7.28;;;;;;;4.20;100.00;94636.75;5060021;28;20535;-87
2023/12/26 02:22:11;;;;;;;28.60;6.82;;;;;;;4.26;100.00;94637.69;5076448;28;20017;-87
2023/12/26 02:24:36;;;;;;;27.88;6.95;;;;;;;4.28;100.00;94636.44;5083475;28;20028;-87
2023/12/26 02:27:02;;;;;;;22.98;6.40;;;;;;;4.33;100.00;94630.56;5097966;28;20488;-87
2023/12/26 02:29:28;;;;;;;19.35;6.75;;;;;;;4.44;100.00;94640.22;5098054;28;20114;-87
2023/12/26 02:31:54;;;;;;;27.30;7.30;;;;;;;4.37;100.00;94637.72;5096977;28;20123;-86
2023/12/26 02:34:21;;;;;;;32.20;7.20;;;;;;;4.55;100.00;94632.69;5077560;28;20028;-86
2023/12/26 02:36:47;;;;;;;25.23;6.90;;;;;;;4.19;100.00;94635.16;5075689;28;20035;-86
2023/12/26 02:39:13;;;;;;;26.15;7.15;;;;;;;4.09;100.00;94628.69;5077339;28;20028;-85
2023/12/26 02:41:39;;;;;;;22.98;6.65;;;;;;;4.05;100.00;94624.97;5076051;28;20441;-86
2023/12/26 02:44:05;;;;;;;15.05;6.53;;;;;;;4.35;100.00;94625.97;5077230;28;20029;-85
2023/12/26 02:46:30;;;;;;;21.50;6.60;;;;;;;4.37;100.00;94621.34;5077068;28;20330;-85
2023/12/26 02:48:55;;;;;;;26.52;7.03;;;;;;;4.05;100.00;94624.97;5075788;28;20437;-86
2023/12/26 02:51:21;;;;;;;30.10;7.82;;;;;;;3.98;100.00;94623.47;5075874;28;20054;-86
2023/12/26 02:53:46;;;;;;;27.63;8.43;;;;;;;4.01;100.00;94621.22;5059430;28;20334;-86
2023/12/26 02:56:12;;;;;;;25.60;6.97;;;;;;;3.96;100.00;94624.47;5076096;28;20039;-86
2023/12/26 02:58:38;;;;;;;28.27;6.97;;;;;;;4.16;100.00;94625.22;5075704;28;20032;-86
2023/12/26 03:01:04;;;;;;;24.15;6.63;;;;;;;4.16;100.00;94620.03;5059438;28;20032;-86
2023/12/26 03:03:29;;;;;;;30.80;7.60;;;;;;;3.96;100.00;94627.06;5059283;28;20024;-86
2023/12/26 03:05:55;;;;;;;34.20;7.30;;;;;;;3.84;100.00;94620.25;5075922;28;20174;-86
2023/12/26 03:08:20;;;;;;;24.88;8.32;;;;;;;3.89;100.00;94623.00;5076729;28;20028;-86
2023/12/26 03:10:46;;;;;;;48.95;9.88;;;;;;;3.95;100.00;94616.91;5075559;28;20032;-86
2023/12/26 03:13:11;;;;;;;27.60;6.75;;;;;;;4.01;100.00;94623.81;5075587;28;20029;-85
2023/12/26 03:15:37;;;;;;;30.55;7.30;;;;;;;4.22;100.00;94617.34;5075491;28;20040;-86
2023/12/26 03:18:02;;;;;;;26.98;7.50;;;;;;;4.18;100.00;94618.81;5076675;28;20033;-86
2023/12/26 03:20:28;;;;;;;30.90;7.50;;;;;;;4.24;100.00;94617.13;5058936;28;20497;-86
2023/12/26 03:22:53;;;;;;;34.55;6.43;;;;;;;4.43;100.00;94622.25;5075529;28;20438;-86
2023/12/26 03:25:19;;;;;;;16.30;6.43;;;;;;;4.31;100.00;94622.22;5075536;28;20126;-86
2023/12/26 03:27:44;;;;;;;28.73;7.82;;;;;;;4.20;100.00;94618.59;5076318;28;20036;-86
2023/12/26 03:30:10;;;;;;;29.88;7.68;;;;;;;4.02;100.00;94615.03;5076583;28;20357;-86
2023/12/26 03:32:35;;;;;;;38.72;6.68;;;;;;;4.07;100.00;94609.19;5075347;28;20086;-86
2023/12/26 03:35:02;;;;;;;14.40;5.97;;;;;;;4.22;100.00;94617.34;5085829;28;20073;-86
2023/12/26 03:37:27;;;;;;;23.73;6.65;;;;;;;4.20;100.00;94611.59;5095453;28;20423;-86
2023/12/26 03:39:52;;;;;;;27.13;7.03;;;;;;;4.10;100.00;94606.94;5095515;28;20031;-86
2023/12/26 03:42:18;;;;;;;35.22;7.45;;;;;;;4.15;100.00;94613.25;5095703;28;20050;-86
2023/12/26 03:44:46;;;;;;;25.38;6.45;;;;;;;3.91;100.00;94603.59;5095526;28;20035;-88
2023/12/26 03:47:12;;;;;;;21.23;6.70;;;;;;;4.07;100.00;94604.78;5095736;28;20089;-86
2023/12/26 03:49:37;;;;;;;19.70;6.47;;;;;;;4.14;100.00;94602.09;5097109;28;20032;-85
2023/12/26 03:52:03;;;;;;;26.05;6.20;;;;;;;4.30;100.00;94607.69;5082483;28;20057;-85
2023/12/26 03:54:29;;;;;;;27.52;6.63;;;;;;;4.08;100.00;94610.75;5099633;28;20065;-85
2023/12/26 03:56:54;;;;;;;31.15;6.90;;;;;;;3.80;100.00;94610.31;5099387;28;20031;-86
2023/12/26 03:59:20;;;;;;;26.38;7.40;;;;;;;3.73;100.00;94604.44;5082833;28;20032;-85
2023/12/26 04:01:46;;;;;;;30.40;6.78;;;;;;;3.74;100.00;94611.19;5099342;28;20345;-86
2023/12/26 04:04:12;;;;;;;34.80;7.55;;;;;;;3.71;100.00;94608.25;5099405;28;20438;-85
2023/12/26 04:06:37;;;;;;;31.33;6.90;;;;;;;3.89;100.00;94607.44;5099364;28;20038;-86
2023/12/26 04:09:03;;;;;;;22.38;7.07;;;;;;;3.82;100.00;94610.88;5082033;28;20039;-85
2023/12/26 04:11:30;;;;;;;26.83;7.00;;;;;;;4.02;100.00;94607.25;5082466;28;20028;-85
2023/12/26 04:13:55;;;;;;;14.50;6.07;;;;;;;4.09;100.00;94605.34;5099298;28;20023;-85
2023/12/26 04:16:21;;;;;;;18.13;6.07;;;;;;;4.06;100.00;94605.00;5099201;28;20445;-85
2023/12/26 04:18:46;;;;;;;20.42;6.25;;;;;;;4.08;100.00;94608.16;5100261;28;20058;-85
2023/12/26 04:21:12;;;;;;;26.95;5.88;;;;;;;3.98;100.00;94605.31;5099061;28;20016;-85
2023/12/26 04:23:37;;;;;;;23.90;6.82;;;;;;;3.92;100.00;94604.41;5099047;28;20024;-85
2023/12/26 04:26:02;;;;;;;25.63;6.97;;;;;;;3.85;100.00;94609.66;5098938;28;20023;-85
2023/12/26 04:28:28;;;;;;;27.48;6.40;;;;;;;3.89;100.00;94603.03;5082160;28;20379;-85
2023/12/26 04:30:53;;;;;;;16.33;5.68;;;;;;;3.98;100.00;94594.94;5100129;28;20049;-85
2023/12/26 04:33:19;;;;;;;37.83;7.20;;;;;;;3.81;100.00;94601.53;5098782;28;20039;-85
2023/12/26 04:35:45;;;;;;;27.42;6.95;;;;;;;3.90;100.00;94598.66;5098661;28;20025;-86
2023/12/26 04:38:12;;;;;;;25.38;6.85;;;;;;;3.95;100.00;94601.34;5098698;28;20413;-86
2023/12/26 04:40:38;;;;;;;23.50;6.30;;;;;;;4.04;100.00;94600.06;5099855;28;20019;-86
2023/12/26 04:43:07;;;;;;;16.38;6.25;;;;;;;4.15;100.00;94598.50;5098745;28;20020;-85
2023/12/26 04:45:33;;;;;;;23.85;6.63;;;;;;;4.14;100.00;94601.31;5098599;28;20093;-86
2023/12/26 04:47:58;;;;;;;20.65;7.03;;;;;;;4.08;100.00;94597.78;5098599;28;20028;-86
2023/12/26 04:50:23;;;;;;;20.08;5.88;;;;;;;4.19;100.00;94593.69;5098435;28;20024;-86
2023/12/26 04:52:49;;;;;;;17.55;6.55;;;;;;;4.20;100.00;94603.81;5098439;28;20441;-86
2023/12/26 04:55:16;;;;;;;19.20;5.68;;;;;;;4.16;100.00;94604.47;5094047;28;20023;-87
2023/12/26 04:57:41;;;;;;;29.02;6.63;;;;;;;3.98;100.00;94610.50;5070114;28;20031;-87
2023/12/26 05:00:07;;;;;;;33.67;6.78;;;;;;;3.87;100.00;94607.63;5085999;28;20025;-87
2023/12/26 05:02:33;;;;;;;30.20;7.53;;;;;;;3.81;100.00;94611.13;5089024;28;20487;-87
2023/12/26 05:04:58;;;;;;;23.83;6.13;;;;;;;3.92;100.00;94605.16;5082092;28;20021;-87
2023/12/26 05:07:24;;;;;;;25.10;5.47;;;;;;;4.14;100.00;94609.09;5078516;28;20031;-87
2023/12/26 05:09:49;;;;;;;17.05;5.60;;;;;;;4.28;100.00;94610.47;5078204;28;20486;-87
2023/12/26 05:12:14;;;;;;;21.50;5.80;;;;;;;4.19;100.00;94617.78;5078120;28;20033;-86
2023/12/26 05:14:40;;;;;;;20.48;5.65;;;;;;;4.13;100.00;94615.28;5078965;28;20033;-87
2023/12/26 05:17:05;;;;;;;22.88;5.57;;;;;;;3.85;100.00;94608.84;5077888;28;20111;-87
2023/12/26 05:19:34;;;;;;;27.02;5.78;;;;;;;3.81;100.00;94609.31;5061592;28;20024;-87
2023/12/26 05:22:00;;;;;;;20.67;5.40;;;;;;;3.93;100.00;94611.94;5079174;28;20103;-87
2023/12/26 05:24:25;;;;;;;17.08;4.88;;;;;;;3.85;100.00;94611.44;5077888;28;20081;-87
2023/12/26 05:26:51;;;;;;;14.18;4.80;;;;;;;3.76;100.00;94614.34;5078964;28;20021;-87
2023/12/26 05:29:16;;;;;;;12.00;4.25;;;;;;;4.03;100.00;94618.41;5086082;28;20021;-87
2023/12/26 05:31:41;;;;;;;16.13;4.50;;;;;;;4.05;100.00;94624.97;5061254;28;20033;-86
2023/12/26 05:34:10;;;;;;;18.38;4.88;;;;;;;3.96;100.00;94626.28;5060912;28;20432;-87
2023/12/26 05:36:38;;;;;;;15.80;5.38;;;;;;;3.67;100.00;94618.25;5061445;28;20031;-87
2023/12/26 05:39:04;;;;;;;24.50;6.25;;;;;;;3.68;100.00;94618.03;5077467;28;20029;-87
2023/12/26 05:41:30;;;;;;;21.20;5.38;;;;;;;3.66;100.00;94622.66;5096772;28;20028;-87
2023/12/26 05:43:55;;;;;;;21.77;4.97;;;;;;;3.86;100.00;94631.19;5097783;28;20326;-87
2023/12/26 05:46:23;;;;;;;14.02;4.68;;;;;;;3.96;100.00;94629.66;5098384;28;20038;-86
2023/12/26 05:48:49;;;;;;;15.18;4.97;;;;;;;3.95;100.00;94630.69;5096810;28;20402;-86
2023/12/26 05:51:15;;;;;;;14.30;4.53;;;;;;;4.06;100.00;94636.13;5080420;28;20063;-86
2023/12/26 05:53:40;;;;;;;24.00;5.45;;;;;;;3.99;100.00;94630.25;5097322;28;20037;-86
2023/12/26 05:56:05;;;;;;;18.08;5.22;;;;;;;4.07;100.00;94633.31;5077732;28;20384;-86
2023/12/26 05:58:31;;;;;;;28.02;5.10;;;;;;;3.94;100.00;94630.88;5076904;28;20054;-86
2023/12/26 06:00:57;;;;;;;26.27;5.18;;;;;;;3.84;100.00;94628.81;5084885;28;20024;-86
2023/12/26 06:03:22;;;;;;;30.73;5.57;;;;;;;3.92;100.00;94627.72;5097297;28;20020;-86
2023/12/26 06:05:48;;;;;;;18.05;5.13;;;;;;;3.91;100.00;94629.50;5080702;28;20070;-86
2023/12/26 06:08:13;;;;;;;14.98;4.03;;;;;;;4.04;100.00;94623.38;5080201;28;20074;-86
2023/12/26 06:10:40;;;;;;;13.63;4.50;;;;;;;4.06;100.00;94629.16;5096640;28;20469;-86
2023/12/26 06:13:06;;;;;;;15.40;4.38;;;;;;;4.07;100.00;94628.13;5059376;28;20068;-86
2023/12/26 06:15:33;;;;;;;19.85;5.20;;;;;;;3.92;100.00;94630.31;5076795;28;20091;-86
2023/12/26 06:17:59;;;;;;;20.25;5.25;;;;;;;3.89;100.00;94631.53;5076512;28;20341;-86
2023/12/26 06:20:27;;;;;;;14.25;4.15;;;;;;;3.95;100.00;94629.88;5086627;28;20028;-86
2023/12/26 06:22:55;;;;;;;10.57;4.20;;;;;;;4.10;100.00;94632.09;5096758;28;20423;-86
2023/12/26 06:25:20;;;;;;;18.15;5.10;;;;;;;4.14;100.00;94637.63;5097949;28;20024;-86
2023/12/26 06:27:46;;;;;;;21.20;4.50;;;;;;;4.05;100.00;94637.94;5079869;28;20345;-86
2023/12/26 06:30:12;;;;;;;18.98;4.68;;;;;;;4.01;100.00;94641.19;5096622;28;20020;-86
2023/12/26 06:32:38;;;;;;;15.25;5.25;;;;;;;3.90;100.00;94638.31;5096447;28;20027;-86
2023/12/26 06:35:04;;;;;;;14.95;4.20;;;;;;;3.96;100.00;94645.22;5096699;28;20310;-86
2023/12/26 06:37:29;;;;;;;16.75;4.38;;;;;;;4.00;100.00;94648.16;5096337;28;20026;-86
2023/12/26 06:39:55;;;;;;;21.00;4.72;;;;;;;4.15;100.00;94652.16;5096404;28;20035;-86
2023/12/26 06:42:21;;;;;;;21.58;5.05;;;;;;;3.97;100.00;94648.59;5084509;28;20422;-86
2023/12/26 06:44:46;;;;;;;15.38;4.60;;;;;;;4.12;100.00;94653.41;5077276;28;20119;-86
2023/12/26 06:47:12;;;;;;;20.98;4.25;;;;;;;4.18;100.00;94649.94;5075730;28;20438;-86
2023/12/26 06:49:43;;;;;;;27.73;5.30;;;;;;;4.18;100.00;94657.72;5076211;28;20115;-86
2023/12/26 06:52:08;;;;;;;17.85;4.85;;;;;;;4.25;100.00;94660.22;5059392;28;20024;-86
2023/12/26 06:54:34;;;;;;;19.65;4.70;;;;;;;4.27;100.00;94658.19;5075910;28;20099;-86
2023/12/26 06:57:06;;;;;;;30.58;5.47;;;;;;;4.26;100.00;94661.03;5075658;28;20024;-86
2023/12/26 06:59:32;;;;;;;24.00;4.75;;;;;;;3.98;100.00;94655.34;5077055;28;20024;-86
2023/12/26 07:01:57;;;;;;;20.80;4.60;;;;;;;3.95;100.00;94655.81;5075877;28;20021;-86
2023/12/26 07:04:25;;;;;;;14.32;4.90;;;;;;;3.92;100.00;94662.19;5075708;28;20523;-86
2023/12/26 07:06:50;;;;;;;21.17;5.00;;;;;;;3.90;100.00;94666.81;5076835;28;20028;-86
2023/12/26 07:09:15;;;;;;;23.25;4.28;;;;;;;4.09;100.00;94675.38;5075921;28;20380;-86
2023/12/26 07:11:41;;;;;;;18.15;4.82;;;;;;;4.39;100.00;94677.19;5075662;28;20032;-86
2023/12/26 07:14:06;;;;;;;18.77;4.38;;;;;;;4.51;100.00;94679.03;5091228;28;20027;-86
2023/12/26 07:16:33;;;;;;;18.10;4.75;;;;;;;4.52;100.00;94681.41;5095762;28;20059;-86
2023/12/26 07:18:59;;;;;;;14.02;3.88;;;;;;;4.43;100.00;94687.13;5095756;28;20448;-86
2023/12/26 07:21:24;;;;;;;19.98;4.88;;;;;;;4.34;100.00;94679.66;5078731;28;20075;-87
2023/12/26 07:23:50;;;;;;;10.52;3.83;;;;;;;4.47;100.00;94686.47;5078319;28;20494;-86
2023/12/26 07:26:15;;;;;;;13.00;3.38;;;;;;;4.77;100.00;94687.47;5095698;28;20391;-86
2023/12/26 07:28:41;;;;;;;17.23;4.13;;;;;;;4.98;100.00;94690.53;5095502;28;20027;-86
2023/12/26 07:31:07;;;;;;;18.52;4.40;;;;;;;4.94;100.00;94696.19;5091242;28;20082;-87
2023/12/26 07:33:32;;;;;;;23.58;4.25;;;;;;;4.76;100.00;94691.06;5082116;28;20131;-88
2023/12/26 07:35:58;;;;;;;18.95;4.47;;;;;;;4.93;100.00;94692.00;5062009;28;20034;-87
2023/12/26 07:38:24;;;;;;;12.00;4.05;;;;;;;5.18;100.00;94692.81;5075584;28;20376;-87
2023/12/26 07:40:50;;;;;;;19.00;3.70;;;;;;;5.28;100.00;94692.25;5059085;28;20024;-87
2023/12/26 07:43:16;;;;;;;14.95;4.30;;;;;;;5.35;100.00;94688.53;5075517;28;20028;-87
2023/12/26 07:45:42;;;;;;;12.32;3.10;;;;;;;5.48;100.00;94702.31;5076087;28;20074;-87
2023/12/26 07:48:07;;;;;;;11.40;4.03;;;;;;;5.48;100.00;94697.94;5075189;28;20345;-87
2023/12/26 07:50:33;;;;;;;15.60;3.65;;;;;;;5.50;100.00;94705.47;5075550;28;20055;-86
2023/12/26 07:52:58;;;;;;;20.02;4.38;;;;;;;5.57;100.00;94702.78;5058659;28;20028;-87
2023/12/26 07:55:24;;;;;;;14.00;3.65;;;;;;;5.64;100.00;94700.84;5080661;28;20028;-87
2023/12/26 07:57:50;;;;;;;10.15;3.53;;;;;;;5.75;100.00;94707.06;5095508;28;20028;-87
2023/12/26 08:00:16;;;;;;;17.35;3.78;;;;;;;5.78;100.00;94715.19;5093453;28;20076;-87
2023/12/26 08:02:42;;;;;;;14.00;3.65;;;;;;;5.85;100.00;94714.28;5095472;28;20024;-87
2023/12/26 08:05:07;;;;;;;16.80;3.95;;;;;;;5.91;100.00;94708.94;5094829;28;20032;-86
2023/12/26 08:07:33;;;;;;;10.55;3.63;;;;;;;5.91;100.00;94711.56;5076723;28;20355;-87
2023/12/26 08:09:58;;;;;;;12.88;4.20;;;;;;;6.03;100.00;94715.97;5095717;28;20028;-87
2023/12/26 08:12:23;;;;;;;18.42;4.22;;;;;;;6.09;100.00;94715.06;5095432;28;20430;-86
2023/12/26 08:14:49;;;;;;;13.18;3.70;;;;;;;6.11;100.00;94723.44;5087618;28;20024;-87
2023/12/26 08:17:14;;;;;;;16.67;4.18;;;;;;;6.19;100.00;94724.88;5095320;28;20032;-86
2023/12/26 08:19:40;;;;;;;14.80;3.50;;;;;;;6.28;100.00;94720.13;5095287;28;20028;-87
2023/12/26 08:22:05;;;;;;;11.60;4.03;;;;;;;6.36;100.00;94723.13;5096641;28;20031;-87
2023/12/26 08:24:31;;;;;;;12.43;3.47;;;;;;;6.44;100.00;94727.19;5076356;28;20103;-87
2023/12/26 08:26:57;;;;;;;16.95;3.78;;;;;;;6.42;100.00;94725.81;5075129;28;20031;-87
2023/12/26 08:29:23;;;;;;;13.13;3.55;;;;;;;6.40;100.00;94736.50;5076362;28;20032;-86
2023/12/26 08:31:48;;;;;;;15.98;4.40;;;;;;;6.53;100.00;94735.41;5063655;28;20032;-86
2023/12/26 08:34:14;;;;;;;10.52;3.83;;;;;;;6.61;100.00;94735.06;5078354;28;20031;-87
2023/12/26 08:36:39;;;;;;;13.30;4.03;;;;;;;6.60;100.00;94738.69;5099598;28;20043;-87
2023/12/26 08:39:05;;;;;;;10.20;3.58;;;;;;;6.72;100.00;94732.63;5099065;28;20024;-87
2023/12/26 08:41:30;;;;;;;11.15;3.55;;;;;;;6.74;100.00;94738.38;5085493;28;20032;-86
2023/12/26 08:43:56;;;;;;;14.02;3.90;;;;;;;6.69;100.00;94744.31;5078391;28;20035;-86
2023/12/26 08:46:21;;;;;;;16.15;3.47;;;;;;;6.75;100.00;94742.59;5061800;28;20448;-85
2023/12/26 08:48:47;;;;;;;14.02;3.40;;;;;;;6.86;100.00;94741.72;5079037;28;20079;-85
2023/12/26 08:51:13;;;;;;;14.18;3.72;;;;;;;6.79;100.00;94754.09;5081676;28;20034;-86
2023/12/26 08:53:38;;;;;;;16.63;3.72;;;;;;;6.92;100.00;94756.44;5081415;28;20028;-86
2023/12/26 08:56:05;;;;;;;12.80;3.20;;;;;;;7.03;100.00;94754.78;5098430;28;20031;-86
2023/12/26 08:58:32;;;;;;;16.50;3.95;;;;;;;7.06;100.00;94762.13;5098287;28;20024;-85
2023/12/26 09:01:01;;;;;;;14.60;3.95;;;;;;;7.11;100.00;94756.22;5098253;28;20031;-85
2023/12/26 09:03:27;;;;;;;9.63;3.33;;;;;;;7.23;100.00;94766.56;5081616;28;20524;-85
2023/12/26 09:05:53;;;;;;;15.63;3.45;;;;;;;7.24;100.00;94768.13;5098262;28;20024;-85
2023/12/26 09:08:19;;;;;;;10.35;3.30;;;;;;;7.29;100.00;94770.03;5081176;28;20035;-86
2023/12/26 09:10:44;;;;;;;16.58;3.58;;;;;;;7.31;100.00;94775.81;5076341;28;20378;-87
2023/12/26 09:13:11;;;;;;;10.10;2.60;;;;;;;7.42;100.00;94772.34;5061743;28;20081;-86
2023/12/26 09:15:36;;;;;;;10.85;3.05;;;;;;;7.45;100.00;94771.88;5061530;28;20028;-86
2023/12/26 09:18:02;;;;;;;7.07;2.90;;;;;;;7.51;100.00;94783.16;5060696;28;20123;-86
2023/12/26 09:20:28;;;;;;;19.05;2.90;;;;;;;7.39;100.00;94780.66;5061230;28;20426;-86
2023/12/26 09:22:53;;;;;;;17.95;3.10;;;;;;;7.32;100.00;94796.44;5078430;28;20029;-85
2023/12/26 09:25:19;;;;;;;17.55;2.92;;;;;;;7.50;100.00;94792.00;5085766;28;20118;-85
2023/12/26 09:27:44;;;;;;;16.95;2.90;;;;;;;7.54;100.00;94797.56;5076989;28;20039;-84
2023/12/26 09:30:10;;;;;;;15.27;3.10;;;;;;;7.55;100.00;94799.94;5078230;28;20130;-84
2023/12/26 09:32:36;;;;;;;12.50;3.20;;;;;;;7.62;100.00;94794.56;5077348;28;20090;-84
2023/12/26 09:35:01;;;;;;;10.38;2.08;;;;;;;7.69;100.00;94789.19;5071564;28;20032;-84
2023/12/26 09:37:26;;;;;;;14.05;2.50;;;;;;;7.90;100.00;94800.72;5060276;28;20028;-84
2023/12/26 09:39:52;;;;;;;9.55;2.95;;;;;;;7.92;100.00;94796.03;5078477;28;20430;-84
2023/12/26 09:42:24;;;;;;;10.93;2.33;;;;;;;8.10;100.00;94802.78;5085158;28;20020;-84
2023/12/26 09:44:51;;;;;;;13.63;3.38;;;;;;;8.26;100.00;94792.59;5077249;28;20032;-84
2023/12/26 09:47:16;;;;;;;7.07;2.47;;;;;;;8.35;100.00;94798.94;5076622;28;20468;-84
2023/12/26 09:49:43;;;;;;;22.83;3.72;;;;;;;8.25;100.00;94793.59;5077075;28;20060;-84
2023/12/26 09:52:09;;;;;;;15.27;2.75;;;;;;;8.33;100.00;94798.41;5061031;28;20032;-84
2023/12/26 09:54:37;;;;;;;48.72;18.67;;;;;;;8.55;100.00;94795.06;5087431;28;20441;-84
2023/12/26 09:57:03;;;;;;;105.30;38.30;;;;;;;8.69;100.00;94795.47;5079717;28;20115;-84
2023/12/26 09:59:29;;;;;;;85.40;29.77;;;;;;;8.85;100.00;94793.81;5079804;28;20097;-84
2023/12/26 10:01:54;;;;;;;425.80;144.68;;;;;;;8.96;100.00;94792.09;5081684;28;20429;-84
2023/12/26 10:04:20;;;;;;;722.88;273.20;;;;;;;8.90;100.00;94794.66;5104204;28;20043;-84
2023/12/26 10:06:45;;;;;;;568.33;190.35;;;;;;;9.05;100.00;94780.16;5096098;28;20062;-85
2023/12/26 10:09:10;;;;;;;1108.75;455.48;;;;;;;9.15;100.00;94793.31;5087793;28;20127;-85
2023/12/26 10:11:41;;;;;;;1126.43;472.45;;;;;;;9.22;100.00;94787.88;5076701;28;20434;-85
2023/12/26 10:14:07;;;;;;;548.85;215.73;;;;;;;9.33;100.00;94791.41;5076541;28;20055;-85
2023/12/26 10:16:34;;;;;;;66.85;26.50;;;;;;;9.37;100.00;94778.59;5066977;28;20114;-85
2023/12/26 10:18:59;;;;;;;57.30;26.88;;;;;;;9.44;100.00;94782.59;5097143;28;20077;-85
2023/12/26 10:21:25;;;;;;;42.33;22.67;;;;;;;9.52;100.00;94780.56;5077725;28;20032;-85
2023/12/26 10:23:51;;;;;;;36.00;19.35;;;;;;;9.67;100.00;94780.69;5076389;28;20028;-84
2023/12/26 10:26:17;;;;;;;40.10;21.75;;;;;;;9.94;100.00;94779.81;5079604;28;20039;-86
2023/12/26 10:28:44;;;;;;;16.33;4.00;;;;;;;9.88;100.00;94776.38;5078459;28;20036;-86
2023/12/26 10:31:19;;;;;;;13.95;6.13;;;;;;;9.95;100.00;94772.72;5097831;28;20028;-87
2023/12/26 10:33:44;;;;;;;20.95;9.95;;;;;;;10.31;100.00;94770.31;5097927;28;20040;-86
2023/12/26 10:36:14;;;;;;;13.13;3.40;;;;;;;10.35;100.00;94770.59;5066536;28;20154;-85
2023/12/26 10:38:40;;;;;;;30.40;11.82;;;;;;;10.32;100.00;94775.28;5076026;28;20085;-85
2023/12/26 10:41:08;;;;;;;19.20;6.25;;;;;;;10.39;100.00;94772.44;5076176;28;20032;-85
2023/12/26 10:43:35;;;;;;;16.70;7.13;;;;;;;10.62;100.00;94767.84;5077112;28;20114;-85
2023/12/26 10:46:01;;;;;;;12.35;3.38;;;;;;;10.77;100.00;94769.72;5096303;28;20038;-85
2023/12/26 10:48:35;;;;;;;13.80;4.70;;;;;;;10.81;100.00;94760.31;5096130;28;20040;-85
2023/12/26 10:51:01;;;;;;;14.77;2.95;;;;;;;10.79;100.00;94758.97;5096145;28;20032;-85
2023/12/26 10:53:32;;;;;;;14.43;4.20;;;;;;;10.78;100.00;94758.19;5096052;28;20323;-85
2023/12/26 10:55:58;;;;;;;26.80;7.97;;;;;;;10.99;100.00;94766.91;5097392;28;20118;-85
2023/12/26 10:58:29;;;;;;;13.70;4.38;;;;;;;11.11;100.00;94777.13;5095717;28;20031;-85
2023/12/26 11:00:56;;;;;;;18.10;5.03;;;;;;;11.29;100.00;94761.94;5072700;28;20114;-85
2023/12/26 11:03:22;;;;;;;24.15;7.80;;;;;;;11.40;100.00;94763.53;5095236;28;20456;-85
2023/12/26 11:05:47;;;;;;;8.52;3.17;;;;;;;11.41;100.00;94761.69;5095993;28;20028;-85
2023/12/26 11:08:13;;;;;;;9.82;2.50;;;;;;;11.58;100.00;94770.09;5095923;28;20036;-85
2023/12/26 11:10:38;;;;;;;13.57;2.85;;;;;;;11.87;100.00;94766.09;5080564;28;20515;-85
2023/12/26 11:13:04;;;;;;;17.35;2.70;;;;;;;11.50;100.00;94761.97;5075555;28;20036;-86
2023/12/26 11:15:29;;;;;;;15.30;2.92;;;;;;;10.89;100.00;94754.53;5075728;28;20033;-85
2023/12/26 11:17:55;;;;;;;24.13;7.22;;;;;;;11.62;100.00;94765.09;5077388;28;20040;-85